sensor_id;sensor_type;location;lat;lon;timestamp;P1;durP1;ratioP1;P2;durP2;ratioP2
5690;SDS011;2870;42.680;23.364;2023-04-15T00:01:19;5.60;;;4.10;;
5690;SDS011;2870;42.680;23.364;2023-04-15T00:03:46;8.03;;;3.93;;
5690;SDS011;2870;42.680;23.364;2023-04-15T00:06:13;6.23;;;4.03;;
5690;SDS011;2870;42.680;23.364;2023-04-15T00:08:42;7.30;;;4.20;;
5690;SDS011;2870;42.680;23.364;2023-04-15T00:11:08;7.57;;;4.63;;
5690;SDS011;2870;42.680;23.364;2023-04-15T00:13:35;6.03;;;4.40;;
5690;SDS011;2870;42.680;23.364;2023-04-15T00:16:02;7.53;;;4.60;;
5690;SDS011;2870;42.680;23.364;2023-04-15T00:18:30;10.60;;;4.80;;
5690;SDS011;2870;42.680;23.364;2023-04-15T00:20:57;6.87;;;5.47;;
5690;SDS011;2870;42.680;23.364;2023-04-15T00:23:24;8.37;;;5.00;;
5690;SDS011;2870;42.680;23.364;2023-04-15T00:25:53;7.80;;;5.17;;
5690;SDS011;2870;42.680;23.364;2023-04-15T00:28:20;11.97;;;5.33;;
5690;SDS011;2870;42.680;23.364;2023-04-15T00:30:47;9.03;;;6.00;;
5690;SDS011;2870;42.680;23.364;2023-04-15T00:33:14;9.07;;;5.97;;
5690;SDS011;2870;42.680;23.364;2023-04-15T00:35:41;9.17;;;6.30;;
5690;SDS011;2870;42.680;23.364;2023-04-15T00:38:08;8.70;;;6.27;;
5690;SDS011;2870;42.680;23.364;2023-04-15T00:40:35;6.63;;;4.70;;
5690;SDS011;2870;42.680;23.364;2023-04-15T00:43:04;14.90;;;6.10;;
5690;SDS011;2870;42.680;23.364;2023-04-15T00:45:31;10.53;;;5.77;;
5690;SDS011;2870;42.680;23.364;2023-04-15T00:47:58;7.27;;;5.03;;
5690;SDS011;2870;42.680;23.364;2023-04-15T00:50:25;9.00;;;5.40;;
5690;SDS011;2870;42.680;23.364;2023-04-15T00:52:52;7.33;;;5.20;;
5690;SDS011;2870;42.680;23.364;2023-04-15T00:55:19;7.00;;;5.20;;
5690;SDS011;2870;42.680;23.364;2023-04-15T00:57:46;11.80;;;5.53;;
5690;SDS011;2870;42.680;23.364;2023-04-15T01:00:15;8.67;;;5.13;;
5690;SDS011;2870;42.680;23.364;2023-04-15T01:02:42;9.07;;;6.20;;
5690;SDS011;2870;42.680;23.364;2023-04-15T01:05:09;8.63;;;5.93;;
5690;SDS011;2870;42.680;23.364;2023-04-15T01:07:35;8.57;;;6.10;;
5690;SDS011;2870;42.680;23.364;2023-04-15T01:10:02;9.67;;;6.80;;
5690;SDS011;2870;42.680;23.364;2023-04-15T01:12:30;9.87;;;5.93;;
5690;SDS011;2870;42.680;23.364;2023-04-15T01:14:58;7.70;;;6.10;;
5690;SDS011;2870;42.680;23.364;2023-04-15T01:17:27;10.90;;;5.60;;
5690;SDS011;2870;42.680;23.364;2023-04-15T01:19:54;9.10;;;6.23;;
5690;SDS011;2870;42.680;23.364;2023-04-15T01:22:22;8.50;;;6.20;;
5690;SDS011;2870;42.680;23.364;2023-04-15T01:24:50;9.83;;;5.67;;
5690;SDS011;2870;42.680;23.364;2023-04-15T01:27:25;9.07;;;5.67;;
5690;SDS011;2870;42.680;23.364;2023-04-15T01:29:52;8.87;;;5.80;;
5690;SDS011;2870;42.680;23.364;2023-04-15T01:32:18;9.10;;;6.17;;
5690;SDS011;2870;42.680;23.364;2023-04-15T01:34:45;8.90;;;5.83;;
5690;SDS011;2870;42.680;23.364;2023-04-15T01:37:12;13.10;;;6.10;;
5690;SDS011;2870;42.680;23.364;2023-04-15T01:39:39;12.63;;;6.50;;
5690;SDS011;2870;42.680;23.364;2023-04-15T01:42:06;11.77;;;6.23;;
5690;SDS011;2870;42.680;23.364;2023-04-15T01:44:35;9.17;;;6.33;;
5690;SDS011;2870;42.680;23.364;2023-04-15T01:47:01;11.03;;;6.30;;
5690;SDS011;2870;42.680;23.364;2023-04-15T01:49:29;11.03;;;6.10;;
5690;SDS011;2870;42.680;23.364;2023-04-15T01:51:56;9.73;;;6.13;;
5690;SDS011;2870;42.680;23.364;2023-04-15T01:54:23;8.00;;;5.53;;
5690;SDS011;2870;42.680;23.364;2023-04-15T01:56:50;7.60;;;4.83;;
5690;SDS011;2870;42.680;23.364;2023-04-15T01:59:17;11.33;;;6.43;;
5690;SDS011;2870;42.680;23.364;2023-04-15T02:01:45;8.70;;;5.40;;
5690;SDS011;2870;42.680;23.364;2023-04-15T02:04:12;7.50;;;6.13;;
5690;SDS011;2870;42.680;23.364;2023-04-15T02:06:41;13.47;;;6.87;;
5690;SDS011;2870;42.680;23.364;2023-04-15T02:09:08;11.10;;;5.30;;
5690;SDS011;2870;42.680;23.364;2023-04-15T02:11:35;9.70;;;5.43;;
5690;SDS011;2870;42.680;23.364;2023-04-15T02:14:03;8.60;;;5.60;;
5690;SDS011;2870;42.680;23.364;2023-04-15T02:16:30;10.33;;;5.43;;
5690;SDS011;2870;42.680;23.364;2023-04-15T02:18:59;7.17;;;4.67;;
5690;SDS011;2870;42.680;23.364;2023-04-15T02:21:27;10.93;;;5.60;;
5690;SDS011;2870;42.680;23.364;2023-04-15T02:23:54;10.97;;;5.90;;
5690;SDS011;2870;42.680;23.364;2023-04-15T02:26:21;5.93;;;4.83;;
5690;SDS011;2870;42.680;23.364;2023-04-15T02:28:49;12.30;;;5.77;;
5690;SDS011;2870;42.680;23.364;2023-04-15T02:31:16;6.30;;;4.73;;
5690;SDS011;2870;42.680;23.364;2023-04-15T02:33:43;9.87;;;5.43;;
5690;SDS011;2870;42.680;23.364;2023-04-15T02:36:12;11.50;;;5.87;;
5690;SDS011;2870;42.680;23.364;2023-04-15T02:38:39;7.23;;;5.30;;
5690;SDS011;2870;42.680;23.364;2023-04-15T02:41:07;7.93;;;5.50;;
5690;SDS011;2870;42.680;23.364;2023-04-15T02:43:34;8.20;;;5.83;;
5690;SDS011;2870;42.680;23.364;2023-04-15T02:46:02;8.63;;;5.77;;
5690;SDS011;2870;42.680;23.364;2023-04-15T02:48:29;15.43;;;7.00;;
5690;SDS011;2870;42.680;23.364;2023-04-15T02:51:09;11.30;;;6.97;;
5690;SDS011;2870;42.680;23.364;2023-04-15T02:53:38;8.57;;;6.23;;
5690;SDS011;2870;42.680;23.364;2023-04-15T02:56:05;10.87;;;6.97;;
5690;SDS011;2870;42.680;23.364;2023-04-15T02:58:33;17.00;;;8.30;;
5690;SDS011;2870;42.680;23.364;2023-04-15T03:01:01;13.10;;;8.00;;
5690;SDS011;2870;42.680;23.364;2023-04-15T03:03:27;8.87;;;6.83;;
5690;SDS011;2870;42.680;23.364;2023-04-15T03:05:54;9.77;;;7.30;;
5690;SDS011;2870;42.680;23.364;2023-04-15T03:08:23;21.50;;;8.30;;
5690;SDS011;2870;42.680;23.364;2023-04-15T03:10:50;11.23;;;7.20;;
5690;SDS011;2870;42.680;23.364;2023-04-15T03:13:18;11.07;;;7.20;;
5690;SDS011;2870;42.680;23.364;2023-04-15T03:15:45;13.73;;;6.70;;
5690;SDS011;2870;42.680;23.364;2023-04-15T03:18:13;12.20;;;7.20;;
5690;SDS011;2870;42.680;23.364;2023-04-15T03:20:39;11.20;;;6.80;;
5690;SDS011;2870;42.680;23.364;2023-04-15T03:23:06;11.77;;;6.77;;
5690;SDS011;2870;42.680;23.364;2023-04-15T03:25:35;8.30;;;6.10;;
5690;SDS011;2870;42.680;23.364;2023-04-15T03:28:02;8.20;;;7.10;;
5690;SDS011;2870;42.680;23.364;2023-04-15T03:30:29;10.47;;;6.90;;
5690;SDS011;2870;42.680;23.364;2023-04-15T03:32:56;9.87;;;7.77;;
5690;SDS011;2870;42.680;23.364;2023-04-15T03:35:23;9.83;;;6.77;;
5690;SDS011;2870;42.680;23.364;2023-04-15T03:37:49;9.10;;;6.40;;
5690;SDS011;2870;42.680;23.364;2023-04-15T03:40:16;13.50;;;6.90;;
5690;SDS011;2870;42.680;23.364;2023-04-15T03:42:45;11.23;;;5.97;;
5690;SDS011;2870;42.680;23.364;2023-04-15T03:45:11;13.87;;;6.73;;
5690;SDS011;2870;42.680;23.364;2023-04-15T03:47:38;9.73;;;6.70;;
5690;SDS011;2870;42.680;23.364;2023-04-15T03:50:06;9.40;;;6.60;;
5690;SDS011;2870;42.680;23.364;2023-04-15T03:52:33;11.43;;;7.33;;
5690;SDS011;2870;42.680;23.364;2023-04-15T03:55:00;11.17;;;6.93;;
5690;SDS011;2870;42.680;23.364;2023-04-15T03:57:27;7.83;;;5.93;;
5690;SDS011;2870;42.680;23.364;2023-04-15T03:59:55;8.20;;;5.77;;
5690;SDS011;2870;42.680;23.364;2023-04-15T04:02:22;11.50;;;6.23;;
5690;SDS011;2870;42.680;23.364;2023-04-15T04:04:50;11.70;;;7.33;;
5690;SDS011;2870;42.680;23.364;2023-04-15T04:07:17;10.03;;;6.57;;
5690;SDS011;2870;42.680;23.364;2023-04-15T04:09:44;9.27;;;7.00;;
5690;SDS011;2870;42.680;23.364;2023-04-15T04:12:10;10.57;;;7.00;;
5690;SDS011;2870;42.680;23.364;2023-04-15T04:14:37;15.70;;;6.57;;
5690;SDS011;2870;42.680;23.364;2023-04-15T04:17:06;10.70;;;7.13;;
5690;SDS011;2870;42.680;23.364;2023-04-15T04:19:32;17.67;;;6.70;;
5690;SDS011;2870;42.680;23.364;2023-04-15T04:21:59;9.93;;;6.47;;
5690;SDS011;2870;42.680;23.364;2023-04-15T04:24:26;9.43;;;7.57;;
5690;SDS011;2870;42.680;23.364;2023-04-15T04:26:53;14.00;;;6.20;;
5690;SDS011;2870;42.680;23.364;2023-04-15T04:29:20;8.27;;;6.10;;
5690;SDS011;2870;42.680;23.364;2023-04-15T04:31:47;10.03;;;7.27;;
5690;SDS011;2870;42.680;23.364;2023-04-15T04:34:15;10.70;;;6.87;;
5690;SDS011;2870;42.680;23.364;2023-04-15T04:36:42;10.00;;;6.87;;
5690;SDS011;2870;42.680;23.364;2023-04-15T04:39:09;10.47;;;7.37;;
5690;SDS011;2870;42.680;23.364;2023-04-15T04:41:35;12.20;;;7.53;;
5690;SDS011;2870;42.680;23.364;2023-04-15T04:44:02;8.70;;;6.40;;
5690;SDS011;2870;42.680;23.364;2023-04-15T04:46:29;13.20;;;7.40;;
5690;SDS011;2870;42.680;23.364;2023-04-15T04:48:56;11.30;;;7.13;;
5690;SDS011;2870;42.680;23.364;2023-04-15T04:51:24;12.60;;;7.53;;
5690;SDS011;2870;42.680;23.364;2023-04-15T04:53:52;13.67;;;7.60;;
5690;SDS011;2870;42.680;23.364;2023-04-15T04:56:19;12.50;;;8.37;;
5690;SDS011;2870;42.680;23.364;2023-04-15T04:58:46;20.07;;;8.40;;
5690;SDS011;2870;42.680;23.364;2023-04-15T05:01:13;13.27;;;9.10;;
5690;SDS011;2870;42.680;23.364;2023-04-15T05:03:39;19.13;;;10.30;;
5690;SDS011;2870;42.680;23.364;2023-04-15T05:06:06;14.17;;;10.17;;
5690;SDS011;2870;42.680;23.364;2023-04-15T05:08:35;29.37;;;11.33;;
5690;SDS011;2870;42.680;23.364;2023-04-15T05:11:02;16.40;;;8.87;;
5690;SDS011;2870;42.680;23.364;2023-04-15T05:13:28;14.83;;;8.93;;
5690;SDS011;2870;42.680;23.364;2023-04-15T05:15:56;15.40;;;9.33;;
5690;SDS011;2870;42.680;23.364;2023-04-15T05:18:22;15.80;;;9.23;;
5690;SDS011;2870;42.680;23.364;2023-04-15T05:20:49;14.73;;;8.80;;
5690;SDS011;2870;42.680;23.364;2023-04-15T05:23:16;15.73;;;10.17;;
5690;SDS011;2870;42.680;23.364;2023-04-15T05:25:44;15.60;;;9.30;;
5690;SDS011;2870;42.680;23.364;2023-04-15T05:28:11;12.90;;;8.80;;
5690;SDS011;2870;42.680;23.364;2023-04-15T05:30:38;13.43;;;7.77;;
5690;SDS011;2870;42.680;23.364;2023-04-15T05:33:05;14.03;;;9.43;;
5690;SDS011;2870;42.680;23.364;2023-04-15T05:35:32;12.60;;;8.00;;
5690;SDS011;2870;42.680;23.364;2023-04-15T05:37:59;10.23;;;7.43;;
5690;SDS011;2870;42.680;23.364;2023-04-15T05:40:25;17.30;;;8.70;;
5690;SDS011;2870;42.680;23.364;2023-04-15T05:42:54;14.90;;;9.93;;
5690;SDS011;2870;42.680;23.364;2023-04-15T05:45:21;13.20;;;8.40;;
5690;SDS011;2870;42.680;23.364;2023-04-15T05:47:47;16.93;;;9.17;;
5690;SDS011;2870;42.680;23.364;2023-04-15T05:50:18;14.13;;;9.00;;
5690;SDS011;2870;42.680;23.364;2023-04-15T05:52:44;13.27;;;9.70;;
5690;SDS011;2870;42.680;23.364;2023-04-15T05:55:11;17.43;;;9.10;;
5690;SDS011;2870;42.680;23.364;2023-04-15T05:57:38;13.53;;;8.40;;
5690;SDS011;2870;42.680;23.364;2023-04-15T06:00:07;14.07;;;8.80;;
5690;SDS011;2870;42.680;23.364;2023-04-15T06:02:35;12.37;;;8.30;;
5690;SDS011;2870;42.680;23.364;2023-04-15T06:05:02;14.57;;;9.00;;
5690;SDS011;2870;42.680;23.364;2023-04-15T06:07:33;13.10;;;7.40;;
5690;SDS011;2870;42.680;23.364;2023-04-15T06:10:01;11.93;;;7.17;;
5690;SDS011;2870;42.680;23.364;2023-04-15T06:12:28;9.77;;;6.63;;
5690;SDS011;2870;42.680;23.364;2023-04-15T06:14:55;12.63;;;6.83;;
5690;SDS011;2870;42.680;23.364;2023-04-15T06:17:23;9.73;;;6.83;;
5690;SDS011;2870;42.680;23.364;2023-04-15T06:19:50;9.87;;;6.80;;
5690;SDS011;2870;42.680;23.364;2023-04-15T06:22:19;10.83;;;7.07;;
5690;SDS011;2870;42.680;23.364;2023-04-15T06:24:46;11.50;;;6.60;;
5690;SDS011;2870;42.680;23.364;2023-04-15T06:27:13;10.33;;;7.27;;
5690;SDS011;2870;42.680;23.364;2023-04-15T06:29:40;12.50;;;6.90;;
5690;SDS011;2870;42.680;23.364;2023-04-15T06:32:07;9.70;;;6.10;;
5690;SDS011;2870;42.680;23.364;2023-04-15T06:34:35;12.30;;;7.87;;
5690;SDS011;2870;42.680;23.364;2023-04-15T06:37:02;11.17;;;7.50;;
5690;SDS011;2870;42.680;23.364;2023-04-15T06:39:28;14.07;;;7.83;;
5690;SDS011;2870;42.680;23.364;2023-04-15T06:41:55;8.60;;;5.83;;
5690;SDS011;2870;42.680;23.364;2023-04-15T06:44:22;12.00;;;6.30;;
5690;SDS011;2870;42.680;23.364;2023-04-15T06:46:49;18.23;;;5.53;;
5690;SDS011;2870;42.680;23.364;2023-04-15T06:49:15;17.00;;;5.80;;
5690;SDS011;2870;42.680;23.364;2023-04-15T06:51:44;9.43;;;5.83;;
5690;SDS011;2870;42.680;23.364;2023-04-15T06:54:10;13.03;;;6.33;;
5690;SDS011;2870;42.680;23.364;2023-04-15T06:56:37;13.60;;;7.00;;
5690;SDS011;2870;42.680;23.364;2023-04-15T06:59:04;11.80;;;6.97;;
5690;SDS011;2870;42.680;23.364;2023-04-15T07:01:31;12.23;;;6.70;;
5690;SDS011;2870;42.680;23.364;2023-04-15T07:03:58;9.80;;;6.27;;
5690;SDS011;2870;42.680;23.364;2023-04-15T07:06:25;12.00;;;6.03;;
5690;SDS011;2870;42.680;23.364;2023-04-15T07:08:53;10.13;;;6.33;;
5690;SDS011;2870;42.680;23.364;2023-04-15T07:11:21;9.60;;;6.00;;
5690;SDS011;2870;42.680;23.364;2023-04-15T07:13:48;13.07;;;6.10;;
5690;SDS011;2870;42.680;23.364;2023-04-15T07:16:15;11.50;;;6.50;;
5690;SDS011;2870;42.680;23.364;2023-04-15T07:18:41;9.30;;;5.77;;
5690;SDS011;2870;42.680;23.364;2023-04-15T07:21:08;10.70;;;5.60;;
5690;SDS011;2870;42.680;23.364;2023-04-15T07:23:35;9.63;;;6.30;;
5690;SDS011;2870;42.680;23.364;2023-04-15T07:26:03;14.70;;;6.60;;
5690;SDS011;2870;42.680;23.364;2023-04-15T07:28:30;15.33;;;6.90;;
5690;SDS011;2870;42.680;23.364;2023-04-15T07:30:57;11.90;;;6.90;;
5690;SDS011;2870;42.680;23.364;2023-04-15T07:33:24;12.00;;;6.67;;
5690;SDS011;2870;42.680;23.364;2023-04-15T07:35:51;10.60;;;6.47;;
5690;SDS011;2870;42.680;23.364;2023-04-15T07:38:17;10.70;;;6.20;;
5690;SDS011;2870;42.680;23.364;2023-04-15T07:40:45;12.77;;;7.50;;
5690;SDS011;2870;42.680;23.364;2023-04-15T07:43:13;12.30;;;7.50;;
5690;SDS011;2870;42.680;23.364;2023-04-15T07:45:40;11.70;;;7.00;;
5690;SDS011;2870;42.680;23.364;2023-04-15T07:48:07;13.70;;;6.33;;
5690;SDS011;2870;42.680;23.364;2023-04-15T07:50:34;10.83;;;6.43;;
5690;SDS011;2870;42.680;23.364;2023-04-15T07:53:01;17.30;;;5.63;;
5690;SDS011;2870;42.680;23.364;2023-04-15T07:55:28;10.67;;;5.57;;
5690;SDS011;2870;42.680;23.364;2023-04-15T07:57:55;15.17;;;5.90;;
5690;SDS011;2870;42.680;23.364;2023-04-15T08:00:23;17.87;;;6.40;;
5690;SDS011;2870;42.680;23.364;2023-04-15T08:02:50;11.83;;;5.90;;
5690;SDS011;2870;42.680;23.364;2023-04-15T08:05:18;12.37;;;6.33;;
5690;SDS011;2870;42.680;23.364;2023-04-15T08:07:45;27.70;;;6.40;;
5690;SDS011;2870;42.680;23.364;2023-04-15T08:10:12;8.77;;;6.20;;
5690;SDS011;2870;42.680;23.364;2023-04-15T08:12:40;13.40;;;6.23;;
5690;SDS011;2870;42.680;23.364;2023-04-15T08:15:07;10.40;;;5.80;;
5690;SDS011;2870;42.680;23.364;2023-04-15T08:17:36;12.30;;;6.57;;
5690;SDS011;2870;42.680;23.364;2023-04-15T08:20:03;8.60;;;5.33;;
5690;SDS011;2870;42.680;23.364;2023-04-15T08:22:31;9.17;;;6.00;;
5690;SDS011;2870;42.680;23.364;2023-04-15T08:24:58;11.73;;;6.00;;
5690;SDS011;2870;42.680;23.364;2023-04-15T08:27:25;14.50;;;6.50;;
5690;SDS011;2870;42.680;23.364;2023-04-15T08:29:52;8.20;;;5.30;;
5690;SDS011;2870;42.680;23.364;2023-04-15T08:32:19;12.00;;;6.60;;
5690;SDS011;2870;42.680;23.364;2023-04-15T08:34:48;15.07;;;6.63;;
5690;SDS011;2870;42.680;23.364;2023-04-15T08:37:14;11.37;;;5.60;;
5690;SDS011;2870;42.680;23.364;2023-04-15T08:39:41;13.03;;;5.90;;
5690;SDS011;2870;42.680;23.364;2023-04-15T08:42:10;12.33;;;6.50;;
5690;SDS011;2870;42.680;23.364;2023-04-15T08:44:42;8.80;;;5.00;;
5690;SDS011;2870;42.680;23.364;2023-04-15T08:47:08;10.23;;;5.60;;
5690;SDS011;2870;42.680;23.364;2023-04-15T08:49:39;10.27;;;5.53;;
5690;SDS011;2870;42.680;23.364;2023-04-15T08:52:07;14.00;;;5.80;;
5690;SDS011;2870;42.680;23.364;2023-04-15T08:54:35;10.33;;;6.23;;
5690;SDS011;2870;42.680;23.364;2023-04-15T08:57:02;17.60;;;5.47;;
5690;SDS011;2870;42.680;23.364;2023-04-15T08:59:29;10.37;;;5.53;;
5690;SDS011;2870;42.680;23.364;2023-04-15T09:01:56;26.30;;;5.60;;
5690;SDS011;2870;42.680;23.364;2023-04-15T09:04:23;9.23;;;3.93;;
5690;SDS011;2870;42.680;23.364;2023-04-15T09:06:50;8.00;;;4.90;;
5690;SDS011;2870;42.680;23.364;2023-04-15T09:09:18;11.93;;;4.67;;
5690;SDS011;2870;42.680;23.364;2023-04-15T09:11:45;10.83;;;4.97;;
5690;SDS011;2870;42.680;23.364;2023-04-15T09:14:14;7.73;;;3.93;;
5690;SDS011;2870;42.680;23.364;2023-04-15T09:16:56;7.03;;;3.80;;
5690;SDS011;2870;42.680;23.364;2023-04-15T09:19:24;7.20;;;3.70;;
5690;SDS011;2870;42.680;23.364;2023-04-15T09:21:52;7.40;;;4.17;;
5690;SDS011;2870;42.680;23.364;2023-04-15T09:24:22;6.60;;;3.57;;
5690;SDS011;2870;42.680;23.364;2023-04-15T09:26:51;6.13;;;3.40;;
5690;SDS011;2870;42.680;23.364;2023-04-15T09:29:18;7.73;;;3.40;;
5690;SDS011;2870;42.680;23.364;2023-04-15T09:31:45;6.70;;;3.40;;
5690;SDS011;2870;42.680;23.364;2023-04-15T09:34:12;7.23;;;3.27;;
5690;SDS011;2870;42.680;23.364;2023-04-15T09:36:51;8.07;;;3.63;;
5690;SDS011;2870;42.680;23.364;2023-04-15T09:39:21;9.20;;;3.97;;
5690;SDS011;2870;42.680;23.364;2023-04-15T09:42:02;8.07;;;4.10;;
5690;SDS011;2870;42.680;23.364;2023-04-15T09:44:31;6.33;;;3.33;;
5690;SDS011;2870;42.680;23.364;2023-04-15T09:46:58;10.07;;;3.33;;
5690;SDS011;2870;42.680;23.364;2023-04-15T09:49:25;6.70;;;3.60;;
5690;SDS011;2870;42.680;23.364;2023-04-15T09:51:56;6.00;;;3.57;;
5690;SDS011;2870;42.680;23.364;2023-04-15T09:54:27;7.00;;;3.50;;
5690;SDS011;2870;42.680;23.364;2023-04-15T09:57:03;9.40;;;3.80;;
5690;SDS011;2870;42.680;23.364;2023-04-15T09:59:31;14.20;;;3.30;;
5690;SDS011;2870;42.680;23.364;2023-04-15T10:01:58;6.10;;;3.50;;
5690;SDS011;2870;42.680;23.364;2023-04-15T10:04:26;7.50;;;3.50;;
5690;SDS011;2870;42.680;23.364;2023-04-15T10:06:53;7.00;;;2.93;;
5690;SDS011;2870;42.680;23.364;2023-04-15T10:09:21;9.90;;;3.13;;
5690;SDS011;2870;42.680;23.364;2023-04-15T10:11:50;6.93;;;3.37;;
5690;SDS011;2870;42.680;23.364;2023-04-15T10:14:18;7.53;;;3.43;;
5690;SDS011;2870;42.680;23.364;2023-04-15T10:16:46;8.03;;;3.73;;
5690;SDS011;2870;42.680;23.364;2023-04-15T10:19:15;10.43;;;3.40;;
5690;SDS011;2870;42.680;23.364;2023-04-15T10:21:48;5.93;;;2.97;;
5690;SDS011;2870;42.680;23.364;2023-04-15T10:24:16;4.73;;;2.90;;
5690;SDS011;2870;42.680;23.364;2023-04-15T10:26:43;5.30;;;2.97;;
5690;SDS011;2870;42.680;23.364;2023-04-15T10:29:12;4.77;;;2.60;;
5690;SDS011;2870;42.680;23.364;2023-04-15T10:31:39;9.23;;;2.90;;
5690;SDS011;2870;42.680;23.364;2023-04-15T10:34:06;5.60;;;2.67;;
5690;SDS011;2870;42.680;23.364;2023-04-15T10:36:35;12.43;;;3.47;;
5690;SDS011;2870;42.680;23.364;2023-04-15T10:39:03;5.70;;;2.83;;
5690;SDS011;2870;42.680;23.364;2023-04-15T10:42:05;5.80;;;3.47;;
5690;SDS011;2870;42.680;23.364;2023-04-15T10:44:33;7.17;;;3.70;;
5690;SDS011;2870;42.680;23.364;2023-04-15T10:47:03;9.43;;;5.00;;
5690;SDS011;2870;42.680;23.364;2023-04-15T10:49:35;6.77;;;3.30;;
5690;SDS011;2870;42.680;23.364;2023-04-15T10:52:11;5.87;;;3.10;;
5690;SDS011;2870;42.680;23.364;2023-04-15T10:54:40;7.80;;;2.90;;
5690;SDS011;2870;42.680;23.364;2023-04-15T10:57:08;13.00;;;3.13;;
5690;SDS011;2870;42.680;23.364;2023-04-15T11:00:01;6.10;;;2.67;;
5690;SDS011;2870;42.680;23.364;2023-04-15T11:02:45;6.10;;;2.80;;
5690;SDS011;2870;42.680;23.364;2023-04-15T11:05:13;7.50;;;4.20;;
5690;SDS011;2870;42.680;23.364;2023-04-15T11:07:47;6.70;;;3.30;;
5690;SDS011;2870;42.680;23.364;2023-04-15T11:13:23;5.70;;;3.43;;
5690;SDS011;2870;42.680;23.364;2023-04-15T11:15:58;12.20;;;4.23;;
5690;SDS011;2870;42.680;23.364;2023-04-15T11:18:26;4.90;;;2.80;;
5690;SDS011;2870;42.680;23.364;2023-04-15T11:20:57;5.47;;;3.17;;
5690;SDS011;2870;42.680;23.364;2023-04-15T11:23:32;14.50;;;3.83;;
5690;SDS011;2870;42.680;23.364;2023-04-15T11:26:01;8.93;;;2.77;;
5690;SDS011;2870;42.680;23.364;2023-04-15T11:28:31;7.80;;;2.70;;
5690;SDS011;2870;42.680;23.364;2023-04-15T11:31:05;8.10;;;3.30;;
5690;SDS011;2870;42.680;23.364;2023-04-15T11:33:34;9.00;;;2.90;;
5690;SDS011;2870;42.680;23.364;2023-04-15T11:36:01;6.53;;;3.30;;
5690;SDS011;2870;42.680;23.364;2023-04-15T11:38:29;5.87;;;3.47;;
5690;SDS011;2870;42.680;23.364;2023-04-15T11:40:57;5.80;;;3.00;;
5690;SDS011;2870;42.680;23.364;2023-04-15T11:43:23;4.97;;;2.83;;
5690;SDS011;2870;42.680;23.364;2023-04-15T11:45:51;8.33;;;3.43;;
5690;SDS011;2870;42.680;23.364;2023-04-15T11:48:23;9.57;;;3.70;;
5690;SDS011;2870;42.680;23.364;2023-04-15T11:50:54;10.40;;;3.00;;
5690;SDS011;2870;42.680;23.364;2023-04-15T11:53:22;7.93;;;2.43;;
5690;SDS011;2870;42.680;23.364;2023-04-15T11:55:50;4.90;;;2.10;;
5690;SDS011;2870;42.680;23.364;2023-04-15T11:58:19;7.07;;;2.33;;
5690;SDS011;2870;42.680;23.364;2023-04-15T12:00:48;4.83;;;2.07;;
5690;SDS011;2870;42.680;23.364;2023-04-15T12:03:17;5.63;;;3.00;;
5690;SDS011;2870;42.680;23.364;2023-04-15T12:08:52;5.20;;;2.30;;
5690;SDS011;2870;42.680;23.364;2023-04-15T12:11:27;10.20;;;4.10;;
5690;SDS011;2870;42.680;23.364;2023-04-15T12:13:56;5.60;;;2.20;;
5690;SDS011;2870;42.680;23.364;2023-04-15T12:16:24;4.27;;;2.30;;
5690;SDS011;2870;42.680;23.364;2023-04-15T12:18:54;6.23;;;2.40;;
5690;SDS011;2870;42.680;23.364;2023-04-15T12:21:23;4.17;;;2.20;;
5690;SDS011;2870;42.680;23.364;2023-04-15T12:23:51;4.33;;;2.20;;
5690;SDS011;2870;42.680;23.364;2023-04-15T12:26:24;5.30;;;2.40;;
5690;SDS011;2870;42.680;23.364;2023-04-15T12:28:52;6.80;;;2.70;;
5690;SDS011;2870;42.680;23.364;2023-04-15T12:31:19;4.50;;;2.40;;
5690;SDS011;2870;42.680;23.364;2023-04-15T12:33:47;7.10;;;2.50;;
5690;SDS011;2870;42.680;23.364;2023-04-15T12:36:13;4.30;;;2.27;;
5690;SDS011;2870;42.680;23.364;2023-04-15T12:38:42;7.00;;;3.00;;
5690;SDS011;2870;42.680;23.364;2023-04-15T12:41:09;7.00;;;2.30;;
5690;SDS011;2870;42.680;23.364;2023-04-15T12:43:35;5.30;;;2.43;;
5690;SDS011;2870;42.680;23.364;2023-04-15T12:46:02;4.90;;;1.93;;
5690;SDS011;2870;42.680;23.364;2023-04-15T12:48:31;7.07;;;2.20;;
5690;SDS011;2870;42.680;23.364;2023-04-15T12:50:58;5.97;;;2.13;;
5690;SDS011;2870;42.680;23.364;2023-04-15T12:53:24;6.97;;;2.53;;
5690;SDS011;2870;42.680;23.364;2023-04-15T12:55:53;8.23;;;3.40;;
5690;SDS011;2870;42.680;23.364;2023-04-15T12:58:20;7.37;;;2.97;;
5690;SDS011;2870;42.680;23.364;2023-04-15T13:00:47;5.80;;;2.50;;
5690;SDS011;2870;42.680;23.364;2023-04-15T13:03:14;5.47;;;2.00;;
5690;SDS011;2870;42.680;23.364;2023-04-15T13:05:41;7.23;;;2.40;;
5690;SDS011;2870;42.680;23.364;2023-04-15T13:08:08;5.17;;;2.10;;
5690;SDS011;2870;42.680;23.364;2023-04-15T13:10:35;6.83;;;2.30;;
5690;SDS011;2870;42.680;23.364;2023-04-15T13:13:04;6.00;;;3.40;;
5690;SDS011;2870;42.680;23.364;2023-04-15T13:15:31;8.63;;;2.13;;
5690;SDS011;2870;42.680;23.364;2023-04-15T13:17:57;6.30;;;2.30;;
5690;SDS011;2870;42.680;23.364;2023-04-15T13:20:25;5.30;;;2.30;;
5690;SDS011;2870;42.680;23.364;2023-04-15T13:22:52;4.97;;;2.20;;
5690;SDS011;2870;42.680;23.364;2023-04-15T13:25:19;5.30;;;2.47;;
5690;SDS011;2870;42.680;23.364;2023-04-15T13:27:46;5.10;;;1.90;;
5690;SDS011;2870;42.680;23.364;2023-04-15T13:30:14;4.30;;;2.10;;
5690;SDS011;2870;42.680;23.364;2023-04-15T13:32:41;4.50;;;2.00;;
5690;SDS011;2870;42.680;23.364;2023-04-15T13:35:08;6.67;;;2.60;;
5690;SDS011;2870;42.680;23.364;2023-04-15T13:37:35;4.80;;;1.65;;
5690;SDS011;2870;42.680;23.364;2023-04-15T13:40:01;4.37;;;2.23;;
5690;SDS011;2870;42.680;23.364;2023-04-15T13:42:31;12.40;;;2.23;;
5690;SDS011;2870;42.680;23.364;2023-04-15T13:44:58;5.13;;;2.10;;
5690;SDS011;2870;42.680;23.364;2023-04-15T13:47:26;4.10;;;2.20;;
5690;SDS011;2870;42.680;23.364;2023-04-15T13:49:53;9.20;;;2.50;;
5690;SDS011;2870;42.680;23.364;2023-04-15T13:52:20;6.60;;;2.80;;
5690;SDS011;2870;42.680;23.364;2023-04-15T13:54:48;9.17;;;3.20;;
5690;SDS011;2870;42.680;23.364;2023-04-15T13:57:16;4.30;;;2.27;;
5690;SDS011;2870;42.680;23.364;2023-04-15T13:59:43;4.97;;;2.30;;
5690;SDS011;2870;42.680;23.364;2023-04-15T14:02:10;4.70;;;2.20;;
5690;SDS011;2870;42.680;23.364;2023-04-15T14:04:38;4.90;;;2.63;;
5690;SDS011;2870;42.680;23.364;2023-04-15T14:07:05;7.93;;;2.10;;
5690;SDS011;2870;42.680;23.364;2023-04-15T14:09:32;4.10;;;2.10;;
5690;SDS011;2870;42.680;23.364;2023-04-15T14:11:59;7.40;;;3.77;;
5690;SDS011;2870;42.680;23.364;2023-04-15T14:14:26;7.40;;;4.20;;
5690;SDS011;2870;42.680;23.364;2023-04-15T14:16:54;4.70;;;2.10;;
5690;SDS011;2870;42.680;23.364;2023-04-15T14:19:21;5.50;;;2.33;;
5690;SDS011;2870;42.680;23.364;2023-04-15T14:21:50;5.70;;;2.20;;
5690;SDS011;2870;42.680;23.364;2023-04-15T14:24:16;5.57;;;2.30;;
5690;SDS011;2870;42.680;23.364;2023-04-15T14:26:43;4.60;;;2.10;;
5690;SDS011;2870;42.680;23.364;2023-04-15T14:29:10;6.40;;;2.90;;
5690;SDS011;2870;42.680;23.364;2023-04-15T14:31:37;8.00;;;2.33;;
5690;SDS011;2870;42.680;23.364;2023-04-15T14:34:04;4.53;;;2.23;;
5690;SDS011;2870;42.680;23.364;2023-04-15T14:36:31;6.50;;;2.13;;
5690;SDS011;2870;42.680;23.364;2023-04-15T14:38:59;5.80;;;2.40;;
5690;SDS011;2870;42.680;23.364;2023-04-15T14:41:26;5.70;;;2.70;;
5690;SDS011;2870;42.680;23.364;2023-04-15T14:43:53;8.90;;;2.60;;
5690;SDS011;2870;42.680;23.364;2023-04-15T14:46:20;8.80;;;2.83;;
5690;SDS011;2870;42.680;23.364;2023-04-15T14:48:47;10.13;;;2.80;;
5690;SDS011;2870;42.680;23.364;2023-04-15T14:51:15;4.43;;;2.30;;
5690;SDS011;2870;42.680;23.364;2023-04-15T14:53:42;4.77;;;2.50;;
5690;SDS011;2870;42.680;23.364;2023-04-15T14:56:10;5.57;;;2.60;;
5690;SDS011;2870;42.680;23.364;2023-04-15T14:58:37;4.87;;;2.27;;
5690;SDS011;2870;42.680;23.364;2023-04-15T15:01:04;5.13;;;2.40;;
5690;SDS011;2870;42.680;23.364;2023-04-15T15:03:31;8.83;;;2.90;;
5690;SDS011;2870;42.680;23.364;2023-04-15T15:05:59;5.83;;;3.07;;